LOC weather

Los Olivos Airstrip
Caborca, Sonora, Mexico

Public forecast

Using degrees Celsius for public forecast. Weather courtesy of forecast.io.

METAR (pilot weather report)

Closest report is (Old) Puerto PeƱasco Airport, 55.4 nm (102.5 km) NNW. Retrieved UTC (0 seconds ago):

TAF (pilot weather forecast)

Closest forecast is Nogales International Airport, 119.3 nm (220.9 km) ENE. Retrieved 2019/05/22 18:36 UTC (39 minutes ago):

TAF KOLS 221733Z 2218/2318 19018G28KT P6SM FEW080 FM222000 20024G34KT P6SM SCT070 FM230300 19013G21KT P6SM BKN050 FM230800 18009KT P6SM BKN050